Terminal Aerodrome Forecast
Issued by NWS

Home | Current Version | Previous Version | Text Only | Print | Product List | Glossary On
Versions: 1 2 3 4 5 6 7 8 9 10 11 12 13 14 15 16
000
FTUS46 KMTR 311126
TAFSJC
TAF
KSJC 311126Z 3112/0112 15005KT P6SM SKC
     FM311800 VRB03KT P6SM SKC
     FM312000 32012KT P6SM SKC
     FM010300 30006KT P6SM SKC=

USA.gov is the U.S. government's official web portal to all federal, state and local government web resources and services.